sensor_id;sensor_type;location;lat;lon;timestamp;P1;durP1;ratioP1;P2;durP2;ratioP2
81841;SDS011;71284;50.918;7.092;2023-11-19T00:00:34;0.60;;;0.60;;
81841;SDS011;71284;50.918;7.092;2023-11-19T00:03:01;0.60;;;0.53;;
81841;SDS011;71284;50.918;7.092;2023-11-19T00:05:27;2.20;;;0.60;;
81841;SDS011;71284;50.918;7.092;2023-11-19T00:07:54;12.13;;;0.83;;
81841;SDS011;71284;50.918;7.092;2023-11-19T00:10:21;0.93;;;0.93;;
81841;SDS011;71284;50.918;7.092;2023-11-19T00:12:48;0.50;;;0.40;;
81841;SDS011;71284;50.918;7.092;2023-11-19T00:15:14;1.77;;;0.63;;
81841;SDS011;71284;50.918;7.092;2023-11-19T00:17:41;0.67;;;0.60;;
81841;SDS011;71284;50.918;7.092;2023-11-19T00:20:08;0.50;;;0.50;;
81841;SDS011;71284;50.918;7.092;2023-11-19T00:22:34;1.13;;;0.80;;
81841;SDS011;71284;50.918;7.092;2023-11-19T00:25:01;1.73;;;0.57;;
81841;SDS011;71284;50.918;7.092;2023-11-19T00:27:27;0.50;;;0.50;;
81841;SDS011;71284;50.918;7.092;2023-11-19T00:29:54;0.77;;;0.77;;
81841;SDS011;71284;50.918;7.092;2023-11-19T00:32:21;0.60;;;0.60;;
81841;SDS011;71284;50.918;7.092;2023-11-19T00:34:47;0.67;;;0.63;;
81841;SDS011;71284;50.918;7.092;2023-11-19T00:37:14;0.97;;;0.50;;
81841;SDS011;71284;50.918;7.092;2023-11-19T00:39:41;1.13;;;0.67;;
81841;SDS011;71284;50.918;7.092;2023-11-19T00:42:07;1.90;;;1.13;;
81841;SDS011;71284;50.918;7.092;2023-11-19T00:44:34;6.27;;;0.57;;
81841;SDS011;71284;50.918;7.092;2023-11-19T00:47:00;0.40;;;0.30;;
81841;SDS011;71284;50.918;7.092;2023-11-19T00:49:27;0.60;;;0.50;;
81841;SDS011;71284;50.918;7.092;2023-11-19T00:51:53;0.40;;;0.40;;
81841;SDS011;71284;50.918;7.092;2023-11-19T00:54:20;0.50;;;0.50;;
81841;SDS011;71284;50.918;7.092;2023-11-19T00:56:47;0.80;;;0.50;;
81841;SDS011;71284;50.918;7.092;2023-11-19T00:59:13;0.50;;;0.50;;
81841;SDS011;71284;50.918;7.092;2023-11-19T01:01:40;0.60;;;0.53;;
81841;SDS011;71284;50.918;7.092;2023-11-19T01:04:06;0.70;;;0.60;;
81841;SDS011;71284;50.918;7.092;2023-11-19T01:06:33;0.60;;;0.40;;
81841;SDS011;71284;50.918;7.092;2023-11-19T01:08:59;0.50;;;0.30;;
81841;SDS011;71284;50.918;7.092;2023-11-19T01:11:26;2.63;;;0.83;;
81841;SDS011;71284;50.918;7.092;2023-11-19T01:13:53;1.00;;;0.60;;
81841;SDS011;71284;50.918;7.092;2023-11-19T01:16:19;2.87;;;0.57;;
81841;SDS011;71284;50.918;7.092;2023-11-19T01:18:47;0.40;;;0.37;;
81841;SDS011;71284;50.918;7.092;2023-11-19T01:21:13;0.30;;;0.30;;
81841;SDS011;71284;50.918;7.092;2023-11-19T01:23:41;0.50;;;0.30;;
81841;SDS011;71284;50.918;7.092;2023-11-19T01:26:09;3.80;;;0.40;;
81841;SDS011;71284;50.918;7.092;2023-11-19T01:28:36;0.87;;;0.30;;
81841;SDS011;71284;50.918;7.092;2023-11-19T01:31:03;1.10;;;0.40;;
81841;SDS011;71284;50.918;7.092;2023-11-19T01:33:30;0.30;;;0.30;;
81841;SDS011;71284;50.918;7.092;2023-11-19T01:35:56;1.53;;;0.40;;
81841;SDS011;71284;50.918;7.092;2023-11-19T01:38:29;0.80;;;0.40;;
81841;SDS011;71284;50.918;7.092;2023-11-19T01:40:56;0.33;;;0.30;;
81841;SDS011;71284;50.918;7.092;2023-11-19T01:45:58;0.50;;;0.43;;
81841;SDS011;71284;50.918;7.092;2023-11-19T01:48:24;0.50;;;0.40;;
81841;SDS011;71284;50.918;7.092;2023-11-19T01:50:51;1.43;;;0.50;;
81841;SDS011;71284;50.918;7.092;2023-11-19T01:53:17;0.40;;;0.33;;
81841;SDS011;71284;50.918;7.092;2023-11-19T01:55:45;0.43;;;0.40;;
81841;SDS011;71284;50.918;7.092;2023-11-19T01:58:11;0.50;;;0.50;;
81841;SDS011;71284;50.918;7.092;2023-11-19T02:00:37;0.60;;;0.43;;
81841;SDS011;71284;50.918;7.092;2023-11-19T02:03:05;0.50;;;0.50;;
81841;SDS011;71284;50.918;7.092;2023-11-19T02:05:30;0.43;;;0.40;;
81841;SDS011;71284;50.918;7.092;2023-11-19T02:07:57;1.07;;;0.30;;
81841;SDS011;71284;50.918;7.092;2023-11-19T02:10:23;0.60;;;0.50;;
81841;SDS011;71284;50.918;7.092;2023-11-19T02:12:50;0.30;;;0.30;;
81841;SDS011;71284;50.918;7.092;2023-11-19T02:15:17;1.07;;;0.40;;
81841;SDS011;71284;50.918;7.092;2023-11-19T02:17:44;0.40;;;0.37;;
81841;SDS011;71284;50.918;7.092;2023-11-19T02:20:10;0.50;;;0.50;;
81841;SDS011;71284;50.918;7.092;2023-11-19T02:22:37;0.40;;;0.30;;
81841;SDS011;71284;50.918;7.092;2023-11-19T02:25:06;0.50;;;0.30;;
81841;SDS011;71284;50.918;7.092;2023-11-19T02:27:40;0.40;;;0.30;;
81841;SDS011;71284;50.918;7.092;2023-11-19T02:30:14;0.40;;;0.30;;
81841;SDS011;71284;50.918;7.092;2023-11-19T02:32:41;5.13;;;1.17;;
81841;SDS011;71284;50.918;7.092;2023-11-19T02:35:08;0.87;;;0.60;;
81841;SDS011;71284;50.918;7.092;2023-11-19T02:37:34;0.47;;;0.40;;
81841;SDS011;71284;50.918;7.092;2023-11-19T02:40:01;1.40;;;1.20;;
81841;SDS011;71284;50.918;7.092;2023-11-19T02:42:27;1.37;;;0.40;;
81841;SDS011;71284;50.918;7.092;2023-11-19T02:44:54;1.73;;;0.53;;
81841;SDS011;71284;50.918;7.092;2023-11-19T02:47:21;2.13;;;0.90;;
81841;SDS011;71284;50.918;7.092;2023-11-19T02:49:47;2.30;;;0.70;;
81841;SDS011;71284;50.918;7.092;2023-11-19T02:52:14;0.40;;;0.40;;
81841;SDS011;71284;50.918;7.092;2023-11-19T02:54:40;1.90;;;0.50;;
81841;SDS011;71284;50.918;7.092;2023-11-19T02:57:07;2.60;;;0.60;;
81841;SDS011;71284;50.918;7.092;2023-11-19T02:59:35;0.80;;;0.40;;
81841;SDS011;71284;50.918;7.092;2023-11-19T03:02:00;0.80;;;0.50;;
81841;SDS011;71284;50.918;7.092;2023-11-19T03:04:27;1.23;;;0.40;;
81841;SDS011;71284;50.918;7.092;2023-11-19T03:06:53;0.40;;;0.40;;
81841;SDS011;71284;50.918;7.092;2023-11-19T03:09:20;0.50;;;0.50;;
81841;SDS011;71284;50.918;7.092;2023-11-19T03:11:46;0.90;;;0.40;;
81841;SDS011;71284;50.918;7.092;2023-11-19T03:14:13;1.63;;;0.50;;
81841;SDS011;71284;50.918;7.092;2023-11-19T03:16:40;2.67;;;1.40;;
81841;SDS011;71284;50.918;7.092;2023-11-19T03:19:06;1.47;;;0.50;;
81841;SDS011;71284;50.918;7.092;2023-11-19T03:21:33;1.63;;;0.60;;
81841;SDS011;71284;50.918;7.092;2023-11-19T03:23:59;1.50;;;0.57;;
81841;SDS011;71284;50.918;7.092;2023-11-19T03:26:27;0.93;;;0.40;;
81841;SDS011;71284;50.918;7.092;2023-11-19T03:28:53;3.20;;;0.40;;
81841;SDS011;71284;50.918;7.092;2023-11-19T03:31:19;0.73;;;0.73;;
81841;SDS011;71284;50.918;7.092;2023-11-19T03:33:46;1.27;;;0.57;;
81841;SDS011;71284;50.918;7.092;2023-11-19T03:36:12;1.37;;;0.80;;
81841;SDS011;71284;50.918;7.092;2023-11-19T03:38:39;4.30;;;0.60;;
81841;SDS011;71284;50.918;7.092;2023-11-19T03:41:10;11.10;;;0.60;;
81841;SDS011;71284;50.918;7.092;2023-11-19T03:43:37;3.40;;;0.50;;
81841;SDS011;71284;50.918;7.092;2023-11-19T03:46:03;4.10;;;0.80;;
81841;SDS011;71284;50.918;7.092;2023-11-19T03:48:30;7.87;;;1.70;;
81841;SDS011;71284;50.918;7.092;2023-11-19T03:50:57;4.80;;;1.40;;
81841;SDS011;71284;50.918;7.092;2023-11-19T03:53:23;1.70;;;0.60;;
81841;SDS011;71284;50.918;7.092;2023-11-19T03:55:50;5.23;;;1.00;;
81841;SDS011;71284;50.918;7.092;2023-11-19T03:58:16;5.07;;;1.00;;
81841;SDS011;71284;50.918;7.092;2023-11-19T04:00:43;0.57;;;0.53;;
81841;SDS011;71284;50.918;7.092;2023-11-19T04:03:10;1.77;;;0.80;;
81841;SDS011;71284;50.918;7.092;2023-11-19T04:05:36;2.43;;;1.00;;
81841;SDS011;71284;50.918;7.092;2023-11-19T04:08:03;3.40;;;0.80;;
81841;SDS011;71284;50.918;7.092;2023-11-19T04:10:29;7.03;;;0.97;;
81841;SDS011;71284;50.918;7.092;2023-11-19T04:12:56;5.20;;;1.27;;
81841;SDS011;71284;50.918;7.092;2023-11-19T04:15:23;6.77;;;1.53;;
81841;SDS011;71284;50.918;7.092;2023-11-19T04:17:49;11.50;;;1.60;;
81841;SDS011;71284;50.918;7.092;2023-11-19T04:20:16;3.00;;;1.03;;
81841;SDS011;71284;50.918;7.092;2023-11-19T04:22:42;5.63;;;1.57;;
81841;SDS011;71284;50.918;7.092;2023-11-19T04:25:09;3.97;;;1.13;;
81841;SDS011;71284;50.918;7.092;2023-11-19T04:27:36;10.13;;;1.60;;
81841;SDS011;71284;50.918;7.092;2023-11-19T04:30:02;8.13;;;1.40;;
81841;SDS011;71284;50.918;7.092;2023-11-19T04:32:29;2.87;;;1.40;;
81841;SDS011;71284;50.918;7.092;2023-11-19T04:34:56;8.37;;;1.50;;
81841;SDS011;71284;50.918;7.092;2023-11-19T04:37:22;11.97;;;1.60;;
81841;SDS011;71284;50.918;7.092;2023-11-19T04:39:49;14.80;;;2.07;;
81841;SDS011;71284;50.918;7.092;2023-11-19T04:42:15;2.33;;;1.60;;
81841;SDS011;71284;50.918;7.092;2023-11-19T04:44:42;8.17;;;1.67;;
81841;SDS011;71284;50.918;7.092;2023-11-19T04:47:09;3.30;;;1.33;;
81841;SDS011;71284;50.918;7.092;2023-11-19T04:49:35;12.60;;;2.57;;
81841;SDS011;71284;50.918;7.092;2023-11-19T04:52:02;13.33;;;1.70;;
81841;SDS011;71284;50.918;7.092;2023-11-19T04:54:28;5.50;;;1.43;;
81841;SDS011;71284;50.918;7.092;2023-11-19T04:56:55;7.53;;;0.93;;
81841;SDS011;71284;50.918;7.092;2023-11-19T04:59:22;16.50;;;1.63;;
81841;SDS011;71284;50.918;7.092;2023-11-19T05:01:48;7.93;;;1.00;;
81841;SDS011;71284;50.918;7.092;2023-11-19T05:04:15;14.57;;;2.00;;
81841;SDS011;71284;50.918;7.092;2023-11-19T05:06:41;8.13;;;1.70;;
81841;SDS011;71284;50.918;7.092;2023-11-19T05:09:08;15.73;;;1.63;;
81841;SDS011;71284;50.918;7.092;2023-11-19T05:11:35;10.83;;;1.83;;
81841;SDS011;71284;50.918;7.092;2023-11-19T05:14:02;8.63;;;1.63;;
81841;SDS011;71284;50.918;7.092;2023-11-19T05:16:31;7.57;;;1.60;;
81841;SDS011;71284;50.918;7.092;2023-11-19T05:18:58;16.13;;;1.97;;
81841;SDS011;71284;50.918;7.092;2023-11-19T05:21:24;5.10;;;1.07;;
81841;SDS011;71284;50.918;7.092;2023-11-19T05:23:51;7.60;;;1.33;;
81841;SDS011;71284;50.918;7.092;2023-11-19T05:26:19;17.70;;;3.03;;
81841;SDS011;71284;50.918;7.092;2023-11-19T05:28:45;10.63;;;1.77;;
81841;SDS011;71284;50.918;7.092;2023-11-19T05:31:11;5.10;;;1.87;;
81841;SDS011;71284;50.918;7.092;2023-11-19T05:33:38;8.50;;;0.90;;
81841;SDS011;71284;50.918;7.092;2023-11-19T05:36:05;7.10;;;1.57;;
81841;SDS011;71284;50.918;7.092;2023-11-19T05:38:32;10.37;;;1.90;;
81841;SDS011;71284;50.918;7.092;2023-11-19T05:40:59;6.53;;;1.33;;
81841;SDS011;71284;50.918;7.092;2023-11-19T05:43:25;11.30;;;1.10;;
81841;SDS011;71284;50.918;7.092;2023-11-19T05:45:52;1.97;;;0.90;;
81841;SDS011;71284;50.918;7.092;2023-11-19T05:48:19;9.60;;;1.70;;
81841;SDS011;71284;50.918;7.092;2023-11-19T05:50:45;6.57;;;1.37;;
81841;SDS011;71284;50.918;7.092;2023-11-19T05:53:12;10.47;;;1.67;;
81841;SDS011;71284;50.918;7.092;2023-11-19T05:55:38;4.63;;;1.40;;
81841;SDS011;71284;50.918;7.092;2023-11-19T05:58:06;19.47;;;2.87;;
81841;SDS011;71284;50.918;7.092;2023-11-19T06:00:32;17.33;;;2.50;;
81841;SDS011;71284;50.918;7.092;2023-11-19T06:02:59;9.73;;;1.73;;
81841;SDS011;71284;50.918;7.092;2023-11-19T06:05:26;3.70;;;1.30;;
81841;SDS011;71284;50.918;7.092;2023-11-19T06:07:52;9.90;;;1.67;;
81841;SDS011;71284;50.918;7.092;2023-11-19T06:10:19;14.27;;;1.70;;
81841;SDS011;71284;50.918;7.092;2023-11-19T06:12:45;4.70;;;1.40;;
81841;SDS011;71284;50.918;7.092;2023-11-19T06:15:12;17.93;;;2.20;;
81841;SDS011;71284;50.918;7.092;2023-11-19T06:17:39;11.43;;;2.00;;
81841;SDS011;71284;50.918;7.092;2023-11-19T06:20:05;6.13;;;1.10;;
81841;SDS011;71284;50.918;7.092;2023-11-19T06:22:32;12.47;;;1.97;;
81841;SDS011;71284;50.918;7.092;2023-11-19T06:24:59;18.53;;;2.60;;
81841;SDS011;71284;50.918;7.092;2023-11-19T06:27:25;28.50;;;3.83;;
81841;SDS011;71284;50.918;7.092;2023-11-19T06:29:52;17.80;;;2.43;;
81841;SDS011;71284;50.918;7.092;2023-11-19T06:32:19;8.10;;;2.87;;
81841;SDS011;71284;50.918;7.092;2023-11-19T06:34:45;29.20;;;3.50;;
81841;SDS011;71284;50.918;7.092;2023-11-19T06:37:12;17.73;;;2.10;;
81841;SDS011;71284;50.918;7.092;2023-11-19T06:39:38;24.27;;;2.67;;
81841;SDS011;71284;50.918;7.092;2023-11-19T06:42:05;17.10;;;3.63;;
81841;SDS011;71284;50.918;7.092;2023-11-19T06:44:32;13.77;;;2.50;;
81841;SDS011;71284;50.918;7.092;2023-11-19T06:46:58;18.83;;;3.30;;
81841;SDS011;71284;50.918;7.092;2023-11-19T06:49:25;25.23;;;2.70;;
81841;SDS011;71284;50.918;7.092;2023-11-19T06:51:51;14.43;;;1.93;;
81841;SDS011;71284;50.918;7.092;2023-11-19T06:54:18;12.30;;;2.43;;
81841;SDS011;71284;50.918;7.092;2023-11-19T06:56:44;9.43;;;2.27;;
81841;SDS011;71284;50.918;7.092;2023-11-19T06:59:11;12.90;;;1.80;;
81841;SDS011;71284;50.918;7.092;2023-11-19T07:01:38;21.70;;;1.97;;
81841;SDS011;71284;50.918;7.092;2023-11-19T07:04:04;10.40;;;2.23;;
81841;SDS011;71284;50.918;7.092;2023-11-19T07:06:31;21.27;;;2.50;;
81841;SDS011;71284;50.918;7.092;2023-11-19T07:08:57;6.00;;;1.83;;
81841;SDS011;71284;50.918;7.092;2023-11-19T07:11:24;7.20;;;2.10;;
81841;SDS011;71284;50.918;7.092;2023-11-19T07:13:51;11.87;;;2.30;;
81841;SDS011;71284;50.918;7.092;2023-11-19T07:16:17;14.53;;;1.97;;
81841;SDS011;71284;50.918;7.092;2023-11-19T07:18:44;17.80;;;2.43;;
81841;SDS011;71284;50.918;7.092;2023-11-19T07:21:10;16.80;;;2.70;;
81841;SDS011;71284;50.918;7.092;2023-11-19T07:23:37;15.70;;;2.90;;
81841;SDS011;71284;50.918;7.092;2023-11-19T07:26:05;14.83;;;2.60;;
81841;SDS011;71284;50.918;7.092;2023-11-19T07:28:31;16.00;;;2.70;;
81841;SDS011;71284;50.918;7.092;2023-11-19T07:30:58;9.93;;;2.00;;
81841;SDS011;71284;50.918;7.092;2023-11-19T07:33:25;13.70;;;3.23;;
81841;SDS011;71284;50.918;7.092;2023-11-19T07:35:51;12.13;;;2.43;;
81841;SDS011;71284;50.918;7.092;2023-11-19T07:38:18;8.57;;;2.10;;
81841;SDS011;71284;50.918;7.092;2023-11-19T07:40:44;16.07;;;2.70;;
81841;SDS011;71284;50.918;7.092;2023-11-19T07:43:11;20.70;;;4.43;;
81841;SDS011;71284;50.918;7.092;2023-11-19T07:45:38;18.87;;;3.13;;
81841;SDS011;71284;50.918;7.092;2023-11-19T07:48:04;11.03;;;2.10;;
81841;SDS011;71284;50.918;7.092;2023-11-19T07:50:31;14.93;;;3.47;;
81841;SDS011;71284;50.918;7.092;2023-11-19T07:52:57;10.70;;;2.20;;
81841;SDS011;71284;50.918;7.092;2023-11-19T07:55:24;18.00;;;2.30;;
81841;SDS011;71284;50.918;7.092;2023-11-19T07:57:51;7.93;;;3.47;;
81841;SDS011;71284;50.918;7.092;2023-11-19T08:00:17;20.03;;;3.00;;
81841;SDS011;71284;50.918;7.092;2023-11-19T08:02:44;15.63;;;2.10;;
81841;SDS011;71284;50.918;7.092;2023-11-19T08:05:10;16.43;;;3.60;;
81841;SDS011;71284;50.918;7.092;2023-11-19T08:07:37;19.17;;;4.60;;
81841;SDS011;71284;50.918;7.092;2023-11-19T08:10:04;14.67;;;3.10;;
81841;SDS011;71284;50.918;7.092;2023-11-19T08:12:31;7.77;;;2.37;;
81841;SDS011;71284;50.918;7.092;2023-11-19T08:14:57;18.57;;;2.20;;
81841;SDS011;71284;50.918;7.092;2023-11-19T08:17:24;12.63;;;2.33;;
81841;SDS011;71284;50.918;7.092;2023-11-19T08:19:50;13.40;;;3.50;;
81841;SDS011;71284;50.918;7.092;2023-11-19T08:22:17;26.17;;;3.40;;
81841;SDS011;71284;50.918;7.092;2023-11-19T08:24:43;21.03;;;2.37;;
81841;SDS011;71284;50.918;7.092;2023-11-19T08:27:10;17.77;;;2.47;;
81841;SDS011;71284;50.918;7.092;2023-11-19T08:29:37;9.60;;;1.73;;
81841;SDS011;71284;50.918;7.092;2023-11-19T08:32:03;22.80;;;2.10;;
81841;SDS011;71284;50.918;7.092;2023-11-19T08:34:30;13.97;;;2.63;;
81841;SDS011;71284;50.918;7.092;2023-11-19T08:36:57;17.30;;;3.00;;
81841;SDS011;71284;50.918;7.092;2023-11-19T08:39:23;4.60;;;2.10;;
81841;SDS011;71284;50.918;7.092;2023-11-19T08:41:50;24.07;;;4.13;;
81841;SDS011;71284;50.918;7.092;2023-11-19T08:44:17;20.13;;;3.43;;
81841;SDS011;71284;50.918;7.092;2023-11-19T08:46:48;14.73;;;2.60;;
81841;SDS011;71284;50.918;7.092;2023-11-19T08:49:15;17.53;;;2.40;;
81841;SDS011;71284;50.918;7.092;2023-11-19T08:51:41;13.73;;;2.67;;
81841;SDS011;71284;50.918;7.092;2023-11-19T08:54:08;12.40;;;2.73;;
81841;SDS011;71284;50.918;7.092;2023-11-19T08:56:34;16.33;;;3.50;;
81841;SDS011;71284;50.918;7.092;2023-11-19T08:59:01;7.43;;;1.80;;
81841;SDS011;71284;50.918;7.092;2023-11-19T09:01:28;11.80;;;2.80;;
81841;SDS011;71284;50.918;7.092;2023-11-19T09:03:54;21.17;;;2.47;;
81841;SDS011;71284;50.918;7.092;2023-11-19T09:06:21;13.20;;;2.30;;
81841;SDS011;71284;50.918;7.092;2023-11-19T09:08:47;9.23;;;2.10;;
81841;SDS011;71284;50.918;7.092;2023-11-19T09:11:14;22.60;;;2.67;;
81841;SDS011;71284;50.918;7.092;2023-11-19T09:13:41;19.63;;;3.27;;
81841;SDS011;71284;50.918;7.092;2023-11-19T09:16:07;25.83;;;3.23;;
81841;SDS011;71284;50.918;7.092;2023-11-19T09:18:34;19.93;;;2.60;;
81841;SDS011;71284;50.918;7.092;2023-11-19T09:21:00;13.93;;;2.30;;
81841;SDS011;71284;50.918;7.092;2023-11-19T09:23:27;7.03;;;2.40;;
81841;SDS011;71284;50.918;7.092;2023-11-19T09:25:54;17.57;;;2.80;;
81841;SDS011;71284;50.918;7.092;2023-11-19T09:28:20;16.50;;;4.13;;
81841;SDS011;71284;50.918;7.092;2023-11-19T09:30:47;19.57;;;2.30;;
81841;SDS011;71284;50.918;7.092;2023-11-19T09:33:13;21.20;;;3.13;;
81841;SDS011;71284;50.918;7.092;2023-11-19T09:35:40;22.03;;;3.30;;
81841;SDS011;71284;50.918;7.092;2023-11-19T09:38:06;23.27;;;3.03;;
81841;SDS011;71284;50.918;7.092;2023-11-19T09:40:33;16.33;;;2.80;;
81841;SDS011;71284;50.918;7.092;2023-11-19T09:43:00;28.97;;;3.37;;
81841;SDS011;71284;50.918;7.092;2023-11-19T09:45:27;10.83;;;2.60;;
81841;SDS011;71284;50.918;7.092;2023-11-19T09:47:53;18.50;;;2.70;;
81841;SDS011;71284;50.918;7.092;2023-11-19T09:50:20;23.97;;;2.53;;
81841;SDS011;71284;50.918;7.092;2023-11-19T09:52:46;22.33;;;3.67;;
81841;SDS011;71284;50.918;7.092;2023-11-19T09:55:13;17.40;;;4.30;;
81841;SDS011;71284;50.918;7.092;2023-11-19T09:57:39;6.63;;;2.53;;
81841;SDS011;71284;50.918;7.092;2023-11-19T10:00:06;18.10;;;3.13;;
81841;SDS011;71284;50.918;7.092;2023-11-19T10:02:33;22.53;;;3.03;;
81841;SDS011;71284;50.918;7.092;2023-11-19T10:04:59;18.93;;;2.00;;
81841;SDS011;71284;50.918;7.092;2023-11-19T10:07:26;18.50;;;3.90;;
81841;SDS011;71284;50.918;7.092;2023-11-19T10:09:53;28.17;;;3.80;;
81841;SDS011;71284;50.918;7.092;2023-11-19T10:12:19;11.67;;;2.20;;
81841;SDS011;71284;50.918;7.092;2023-11-19T10:14:46;10.37;;;2.60;;
81841;SDS011;71284;50.918;7.092;2023-11-19T10:17:12;20.77;;;3.30;;
81841;SDS011;71284;50.918;7.092;2023-11-19T10:19:40;14.23;;;3.00;;
81841;SDS011;71284;50.918;7.092;2023-11-19T10:22:06;19.67;;;3.07;;
81841;SDS011;71284;50.918;7.092;2023-11-19T10:24:33;14.20;;;2.87;;
81841;SDS011;71284;50.918;7.092;2023-11-19T10:27:00;19.47;;;2.90;;
81841;SDS011;71284;50.918;7.092;2023-11-19T10:29:27;23.00;;;3.27;;
81841;SDS011;71284;50.918;7.092;2023-11-19T10:31:56;17.40;;;3.23;;
81841;SDS011;71284;50.918;7.092;2023-11-19T10:34:25;10.13;;;3.70;;
81841;SDS011;71284;50.918;7.092;2023-11-19T10:36:50;13.10;;;1.97;;
81841;SDS011;71284;50.918;7.092;2023-11-19T10:39:17;11.07;;;2.10;;
81841;SDS011;71284;50.918;7.092;2023-11-19T10:41:44;18.00;;;3.13;;
81841;SDS011;71284;50.918;7.092;2023-11-19T10:44:10;25.57;;;3.37;;
81841;SDS011;71284;50.918;7.092;2023-11-19T10:46:38;17.17;;;3.40;;
81841;SDS011;71284;50.918;7.092;2023-11-19T10:49:04;12.50;;;3.00;;
81841;SDS011;71284;50.918;7.092;2023-11-19T10:51:31;33.60;;;3.77;;
81841;SDS011;71284;50.918;7.092;2023-11-19T10:53:59;16.17;;;2.47;;
81841;SDS011;71284;50.918;7.092;2023-11-19T10:56:24;5.90;;;1.80;;
81841;SDS011;71284;50.918;7.092;2023-11-19T10:58:50;17.13;;;3.10;;
81841;SDS011;71284;50.918;7.092;2023-11-19T11:01:18;17.40;;;2.93;;
81841;SDS011;71284;50.918;7.092;2023-11-19T11:03:44;14.33;;;2.40;;
81841;SDS011;71284;50.918;7.092;2023-11-19T11:06:11;13.00;;;2.10;;
81841;SDS011;71284;50.918;7.092;2023-11-19T11:08:38;15.07;;;2.70;;
81841;SDS011;71284;50.918;7.092;2023-11-19T11:11:04;15.30;;;2.50;;
81841;SDS011;71284;50.918;7.092;2023-11-19T11:13:31;24.77;;;3.07;;
81841;SDS011;71284;50.918;7.092;2023-11-19T11:15:57;21.03;;;2.40;;
81841;SDS011;71284;50.918;7.092;2023-11-19T11:18:24;9.10;;;2.17;;
81841;SDS011;71284;50.918;7.092;2023-11-19T11:20:52;10.73;;;2.10;;
81841;SDS011;71284;50.918;7.092;2023-11-19T11:23:26;12.27;;;2.90;;
81841;SDS011;71284;50.918;7.092;2023-11-19T11:25:58;11.93;;;2.70;;
81841;SDS011;71284;50.918;7.092;2023-11-19T11:28:31;8.90;;;1.97;;
81841;SDS011;71284;50.918;7.092;2023-11-19T11:32:04;17.77;;;2.80;;
81841;SDS011;71284;50.918;7.092;2023-11-19T11:33:43;18.40;;;3.13;;
81841;SDS011;71284;50.918;7.092;2023-11-19T11:36:14;17.97;;;3.00;;
81841;SDS011;71284;50.918;7.092;2023-11-19T11:38:40;20.93;;;3.83;;
81841;SDS011;71284;50.918;7.092;2023-11-19T11:43:44;12.67;;;3.63;;
81841;SDS011;71284;50.918;7.092;2023-11-19T11:46:45;27.20;;;3.03;;
81841;SDS011;71284;50.918;7.092;2023-11-19T11:48:52;12.87;;;3.70;;
81841;SDS011;71284;50.918;7.092;2023-11-19T11:51:19;9.53;;;2.13;;
81841;SDS011;71284;50.918;7.092;2023-11-19T11:53:45;9.60;;;1.90;;
81841;SDS011;71284;50.918;7.092;2023-11-19T11:56:12;16.20;;;2.67;;
81841;SDS011;71284;50.918;7.092;2023-11-19T11:58:39;17.33;;;2.50;;
81841;SDS011;71284;50.918;7.092;2023-11-19T12:01:05;13.93;;;3.30;;
81841;SDS011;71284;50.918;7.092;2023-11-19T12:03:32;7.93;;;1.40;;
81841;SDS011;71284;50.918;7.092;2023-11-19T12:05:58;14.60;;;2.67;;
81841;SDS011;71284;50.918;7.092;2023-11-19T12:08:26;6.73;;;2.10;;
81841;SDS011;71284;50.918;7.092;2023-11-19T12:10:53;6.47;;;1.80;;
81841;SDS011;71284;50.918;7.092;2023-11-19T12:13:20;9.37;;;1.83;;
81841;SDS011;71284;50.918;7.092;2023-11-19T12:16:07;8.10;;;1.77;;
81841;SDS011;71284;50.918;7.092;2023-11-19T12:18:33;9.50;;;1.60;;
81841;SDS011;71284;50.918;7.092;2023-11-19T12:21:00;7.83;;;2.00;;
81841;SDS011;71284;50.918;7.092;2023-11-19T12:23:28;11.90;;;2.07;;
81841;SDS011;71284;50.918;7.092;2023-11-19T12:25:53;5.50;;;1.73;;
81841;SDS011;71284;50.918;7.092;2023-11-19T12:28:19;12.23;;;2.40;;
81841;SDS011;71284;50.918;7.092;2023-11-19T12:30:46;10.20;;;1.63;;
81841;SDS011;71284;50.918;7.092;2023-11-19T12:33:12;4.30;;;1.40;;
81841;SDS011;71284;50.918;7.092;2023-11-19T12:35:39;20.00;;;3.10;;
81841;SDS011;71284;50.918;7.092;2023-11-19T12:38:06;9.00;;;1.63;;
81841;SDS011;71284;50.918;7.092;2023-11-19T12:40:33;10.00;;;2.03;;
81841;SDS011;71284;50.918;7.092;2023-11-19T12:42:59;8.93;;;2.33;;
81841;SDS011;71284;50.918;7.092;2023-11-19T12:48:05;10.87;;;2.70;;
81841;SDS011;71284;50.918;7.092;2023-11-19T12:50:49;9.00;;;2.37;;
81841;SDS011;71284;50.918;7.092;2023-11-19T12:53:12;8.03;;;2.10;;
81841;SDS011;71284;50.918;7.092;2023-11-19T12:55:39;7.83;;;2.00;;
81841;SDS011;71284;50.918;7.092;2023-11-19T12:58:05;5.53;;;2.67;;
81841;SDS011;71284;50.918;7.092;2023-11-19T13:00:32;9.47;;;1.77;;
81841;SDS011;71284;50.918;7.092;2023-11-19T13:02:59;6.03;;;2.13;;
81841;SDS011;71284;50.918;7.092;2023-11-19T13:05:27;7.43;;;2.30;;
81841;SDS011;71284;50.918;7.092;2023-11-19T13:07:58;6.27;;;2.20;;
81841;SDS011;71284;50.918;7.092;2023-11-19T13:10:27;7.43;;;1.70;;
81841;SDS011;71284;50.918;7.092;2023-11-19T13:12:59;15.60;;;1.90;;
81841;SDS011;71284;50.918;7.092;2023-11-19T13:15:25;12.23;;;1.87;;
81841;SDS011;71284;50.918;7.092;2023-11-19T13:17:52;15.27;;;2.47;;
81841;SDS011;71284;50.918;7.092;2023-11-19T13:20:18;10.77;;;2.00;;
81841;SDS011;71284;50.918;7.092;2023-11-19T13:25:20;13.70;;;2.00;;
81841;SDS011;71284;50.918;7.092;2023-11-19T13:27:47;10.60;;;2.23;;
81841;SDS011;71284;50.918;7.092;2023-11-19T13:30:14;10.73;;;2.40;;
81841;SDS011;71284;50.918;7.092;2023-11-19T13:32:41;13.73;;;2.07;;
81841;SDS011;71284;50.918;7.092;2023-11-19T13:35:07;4.67;;;1.23;;
81841;SDS011;71284;50.918;7.092;2023-11-19T13:37:34;16.43;;;2.40;;
81841;SDS011;71284;50.918;7.092;2023-11-19T13:40:00;42.03;;;3.10;;
81841;SDS011;71284;50.918;7.092;2023-11-19T13:42:27;10.37;;;2.13;;
81841;SDS011;71284;50.918;7.092;2023-11-19T13:44:53;16.90;;;2.00;;
81841;SDS011;71284;50.918;7.092;2023-11-19T13:47:20;9.83;;;1.80;;
81841;SDS011;71284;50.918;7.092;2023-11-19T13:49:47;12.93;;;2.23;;
81841;SDS011;71284;50.918;7.092;2023-11-19T13:52:13;17.63;;;2.13;;
81841;SDS011;71284;50.918;7.092;2023-11-19T13:54:40;16.50;;;2.60;;
81841;SDS011;71284;50.918;7.092;2023-11-19T13:57:06;11.87;;;4.43;;
81841;SDS011;71284;50.918;7.092;2023-11-19T13:59:33;13.90;;;2.80;;
81841;SDS011;71284;50.918;7.092;2023-11-19T14:02:00;5.47;;;1.47;;
81841;SDS011;71284;50.918;7.092;2023-11-19T14:04:26;8.10;;;2.03;;
81841;SDS011;71284;50.918;7.092;2023-11-19T14:06:53;12.53;;;2.53;;
81841;SDS011;71284;50.918;7.092;2023-11-19T14:09:19;19.70;;;3.50;;
81841;SDS011;71284;50.918;7.092;2023-11-19T14:11:46;15.57;;;1.70;;
81841;SDS011;71284;50.918;7.092;2023-11-19T14:14:13;11.60;;;2.10;;
81841;SDS011;71284;50.918;7.092;2023-11-19T14:16:40;17.20;;;3.00;;
81841;SDS011;71284;50.918;7.092;2023-11-19T14:19:06;21.30;;;3.07;;
81841;SDS011;71284;50.918;7.092;2023-11-19T14:21:33;18.23;;;2.00;;
81841;SDS011;71284;50.918;7.092;2023-11-19T14:24:00;7.93;;;2.30;;
81841;SDS011;71284;50.918;7.092;2023-11-19T14:26:26;9.07;;;2.33;;
81841;SDS011;71284;50.918;7.092;2023-11-19T14:28:53;11.87;;;2.30;;
81841;SDS011;71284;50.918;7.092;2023-11-19T14:31:19;18.93;;;4.23;;
81841;SDS011;71284;50.918;7.092;2023-11-19T14:33:46;15.83;;;2.07;;
81841;SDS011;71284;50.918;7.092;2023-11-19T14:36:13;12.50;;;2.20;;
81841;SDS011;71284;50.918;7.092;2023-11-19T14:38:39;14.90;;;2.80;;
81841;SDS011;71284;50.918;7.092;2023-11-19T14:41:06;5.53;;;1.90;;
81841;SDS011;71284;50.918;7.092;2023-11-19T14:43:32;15.67;;;2.30;;
81841;SDS011;71284;50.918;7.092;2023-11-19T14:45:59;9.33;;;1.87;;
81841;SDS011;71284;50.918;7.092;2023-11-19T14:48:26;12.03;;;1.80;;